createdAt,value
2017-12-26T00:04:17.891Z,1011.63
2017-12-26T00:13:54.106Z,1010.59
2017-12-26T00:23:30.324Z,1010.59
2017-12-26T00:33:05.826Z,1010.59
2017-12-26T00:42:43.259Z,1010.59
2017-12-26T00:52:19.336Z,1010.59
2017-12-26T01:01:55.353Z,1010.59
2017-12-26T01:11:36.482Z,1010.59
2017-12-26T01:21:07.153Z,1010.59
2017-12-26T01:30:43.354Z,1010.59
2017-12-26T01:40:19.470Z,1010.59
2017-12-26T01:49:55.895Z,1010.59
2017-12-26T01:59:32.462Z,1009.54
2017-12-26T02:09:09.553Z,1009.54
2017-12-26T02:18:45.990Z,1009.54
2017-12-26T02:28:22.396Z,1009.54
2017-12-26T02:37:59.006Z,1009.54
2017-12-26T02:47:35.115Z,1009.54
2017-12-26T02:57:11.917Z,1009.54
2017-12-26T03:06:48.051Z,1009.54
2017-12-26T03:16:24.998Z,1009.54
2017-12-26T03:26:01.238Z,1009.54
2017-12-26T03:35:37.894Z,1008.50
2017-12-26T03:45:13.806Z,1008.50
2017-12-26T03:54:51.313Z,1008.50
2017-12-26T04:04:27.053Z,1008.50
2017-12-26T04:14:03.455Z,1008.50
2017-12-26T04:23:39.867Z,1008.50
2017-12-26T04:33:17.134Z,1008.50
2017-12-26T04:42:52.862Z,1008.50
2017-12-26T04:52:29.898Z,1008.50
2017-12-26T05:02:06.079Z,1008.50
2017-12-26T05:11:41.996Z,1008.50
2017-12-26T05:21:19.285Z,1008.50
2017-12-26T05:30:55.731Z,1008.50
2017-12-26T05:40:32.371Z,1007.45
2017-12-26T05:50:08.477Z,1008.50
2017-12-26T05:59:44.734Z,1008.50
2017-12-26T06:09:20.960Z,1008.50
2017-12-26T06:18:57.004Z,1008.50
2017-12-26T06:28:33.857Z,1008.50
2017-12-26T06:38:10.574Z,1007.45
2017-12-26T06:47:47.134Z,1008.50
2017-12-26T06:57:23.866Z,1007.45
2017-12-26T07:07:00.692Z,1007.45
2017-12-26T07:16:37.008Z,1007.45
2017-12-26T07:26:14.402Z,1007.45
2017-12-26T07:35:51.770Z,1007.45
2017-12-26T07:45:28.227Z,1007.45
2017-12-26T07:55:05.272Z,1007.45
2017-12-26T08:04:41.566Z,1007.45
2017-12-26T08:14:19.492Z,1007.45
2017-12-26T08:23:55.990Z,1007.45
2017-12-26T08:33:37.218Z,1007.45
2017-12-26T08:43:09.355Z,1007.45
2017-12-26T08:52:46.401Z,1007.45
2017-12-26T09:02:22.693Z,1007.45
2017-12-26T09:12:00.684Z,1007.45
2017-12-26T09:21:38.894Z,1007.45
2017-12-26T09:31:16.935Z,1007.45
2017-12-26T09:40:54.249Z,1006.40
2017-12-26T09:50:31.060Z,1006.40
2017-12-26T10:00:05.547Z,1006.40
2017-12-26T10:09:48.074Z,1006.40
2017-12-26T10:19:26.019Z,1006.40
2017-12-26T10:29:03.002Z,1006.40
2017-12-26T10:38:39.522Z,1005.36
2017-12-26T10:58:55.541Z,1005.36
2017-12-26T11:08:33.093Z,1005.36
2017-12-26T11:18:10.242Z,1005.36
2017-12-26T11:27:46.546Z,1004.31
2017-12-26T11:37:22.935Z,1004.31
2017-12-26T11:46:59.376Z,1004.31
2017-12-26T11:56:35.806Z,1005.36
2017-12-26T12:06:10.885Z,1004.31
2017-12-26T12:15:46.969Z,1005.36
2017-12-26T12:25:22.919Z,1004.31
2017-12-26T12:34:58.963Z,1004.31
2017-12-26T12:44:35.436Z,1004.31
2017-12-26T12:54:11.735Z,1004.31
2017-12-26T13:03:47.069Z,1004.31
2017-12-26T13:13:23.469Z,1004.31
2017-12-26T13:22:59.412Z,1004.31
2017-12-26T13:32:35.778Z,1004.31
2017-12-26T13:42:11.862Z,1004.31
2017-12-26T13:51:47.602Z,1004.31
2017-12-26T14:01:26.638Z,1004.31
2017-12-26T14:10:56.445Z,1004.31
2017-12-26T14:20:32.509Z,1004.31
2017-12-26T14:30:08.286Z,1004.31
2017-12-26T14:39:43.252Z,1004.31
2017-12-26T14:49:18.507Z,1004.31
2017-12-26T14:58:53.544Z,1004.31
2017-12-26T15:08:28.816Z,1004.31
2017-12-26T15:18:03.186Z,1004.31
2017-12-26T15:27:43.268Z,1004.31
2017-12-26T15:37:12.334Z,1004.31
2017-12-26T15:46:48.339Z,1004.31
2017-12-26T15:56:23.950Z,1004.31
2017-12-26T16:05:59.604Z,1004.31
2017-12-26T16:15:36.608Z,1004.31
2017-12-26T16:25:12.419Z,1004.31
2017-12-26T16:34:48.538Z,1004.31
2017-12-26T16:44:24.916Z,1005.36
2017-12-26T16:54:01.237Z,1004.31
2017-12-26T17:03:37.244Z,1004.31
2017-12-26T17:13:13.075Z,1004.31
2017-12-26T17:22:48.471Z,1004.31
2017-12-26T17:32:25.910Z,1004.31
2017-12-26T17:42:01.845Z,1004.31
2017-12-26T17:51:38.431Z,1004.31
2017-12-26T18:01:14.755Z,1004.31
2017-12-26T18:10:50.343Z,1004.31
2017-12-26T18:20:26.588Z,1004.31
2017-12-26T18:30:02.633Z,1004.31
2017-12-26T18:39:38.353Z,1004.31
2017-12-26T18:49:15.171Z,1004.31
2017-12-26T18:58:51.708Z,1004.31
2017-12-26T19:08:27.828Z,1004.31
2017-12-26T19:18:07.879Z,1004.31
2017-12-26T19:27:37.995Z,1004.31
2017-12-26T19:37:13.971Z,1004.31
2017-12-26T19:57:31.455Z,1004.31
2017-12-26T20:07:07.540Z,1004.31
2017-12-26T20:16:43.592Z,1004.31
2017-12-26T20:26:19.433Z,1004.31
2017-12-26T20:35:55.664Z,1004.31
2017-12-26T20:45:31.365Z,1004.31
2017-12-26T20:55:08.358Z,1004.31
2017-12-26T21:04:44.695Z,1003.26
2017-12-26T21:14:21.020Z,1003.26
2017-12-26T21:23:57.015Z,1003.26
2017-12-26T21:33:33.059Z,1003.26
2017-12-26T21:43:10.121Z,1003.26
2017-12-26T21:52:46.876Z,1003.26
2017-12-26T22:02:22.948Z,1003.26
2017-12-26T22:11:59.241Z,1003.26
2017-12-26T22:21:35.188Z,1003.26
2017-12-26T22:31:11.307Z,1003.26
2017-12-26T22:40:47.553Z,1003.26
2017-12-26T22:50:23.869Z,1003.26
2017-12-26T23:00:00.655Z,1003.26
2017-12-26T23:09:37.892Z,1002.22
2017-12-26T23:19:14.332Z,1002.22
2017-12-26T23:28:50.433Z,1002.22
2017-12-26T23:38:26.028Z,1002.22
2017-12-26T23:48:03.037Z,1002.22
2017-12-26T23:57:39.495Z,1001.17
